createdAt,value
2022-09-26T00:01:26.568Z,11.60
2022-09-26T00:03:56.850Z,10.73
2022-09-26T00:06:24.463Z,13.70
2022-09-26T00:08:51.403Z,11.20
2022-09-26T00:11:20.367Z,9.97
2022-09-26T00:13:51.033Z,9.00
2022-09-26T00:16:17.762Z,11.80
2022-09-26T00:18:48.879Z,8.77
2022-09-26T00:21:16.128Z,13.07
2022-09-26T00:23:42.926Z,10.40
2022-09-26T00:26:10.290Z,9.03
2022-09-26T00:28:37.885Z,10.07
2022-09-26T00:31:10.557Z,10.93
2022-09-26T00:33:37.995Z,9.40
2022-09-26T00:36:05.669Z,10.97
2022-09-26T00:38:32.996Z,16.47
2022-09-26T00:41:00.073Z,9.63
2022-09-26T00:43:40.457Z,14.17
2022-09-26T00:46:12.663Z,15.13
2022-09-26T00:48:41.813Z,13.50
2022-09-26T00:51:09.005Z,11.43
2022-09-26T00:53:42.238Z,14.73
2022-09-26T00:56:16.057Z,12.07
2022-09-26T00:58:47.855Z,10.77
2022-09-26T01:01:16.015Z,15.60
2022-09-26T01:03:45.162Z,11.30
2022-09-26T01:06:12.209Z,17.93
2022-09-26T01:08:47.766Z,18.17
2022-09-26T01:11:17.216Z,10.60
2022-09-26T01:13:45.452Z,14.63
2022-09-26T01:16:12.152Z,12.50
2022-09-26T01:18:39.262Z,10.63
2022-09-26T01:21:28.310Z,8.60
2022-09-26T01:24:42.750Z,11.60
2022-09-26T01:27:28.390Z,9.57
2022-09-26T01:30:11.860Z,12.10
2022-09-26T01:33:10.737Z,12.20
2022-09-26T01:36:04.703Z,8.97
2022-09-26T01:39:02.456Z,8.83
2022-09-26T01:41:50.160Z,11.30
2022-09-26T01:44:29.053Z,9.13
2022-09-26T01:47:02.871Z,10.47
2022-09-26T01:50:10.774Z,9.63
2022-09-26T01:53:03.275Z,9.67
2022-09-26T01:55:42.657Z,10.77
2022-09-26T01:58:25.189Z,9.63
2022-09-26T02:00:52.703Z,11.63
2022-09-26T02:03:27.271Z,13.93
2022-09-26T02:06:05.545Z,12.53
2022-09-26T02:08:48.696Z,12.13
2022-09-26T02:11:18.573Z,9.03
2022-09-26T02:14:03.838Z,12.47
2022-09-26T02:16:44.596Z,10.87
2022-09-26T02:19:50.032Z,10.20
2022-09-26T02:22:16.762Z,11.53
2022-09-26T02:24:43.445Z,10.77
2022-09-26T02:27:10.206Z,12.57
2022-09-26T02:29:36.868Z,12.43
2022-09-26T02:32:12.960Z,11.20
2022-09-26T02:34:45.317Z,12.00
2022-09-26T02:37:13.467Z,10.10
2022-09-26T02:39:42.052Z,14.00
2022-09-26T02:42:36.706Z,12.87
2022-09-26T02:45:44.048Z,10.33
2022-09-26T02:48:19.668Z,11.67
2022-09-26T02:51:24.555Z,11.23
2022-09-26T02:53:54.722Z,12.53
2022-09-26T02:56:50.821Z,14.27
2022-09-26T02:59:35.117Z,15.33
2022-09-26T03:02:15.652Z,11.80
2022-09-26T03:04:45.334Z,14.20
2022-09-26T03:07:19.474Z,11.83
2022-09-26T03:09:48.547Z,12.20
2022-09-26T03:12:16.694Z,13.00
2022-09-26T03:14:45.738Z,11.97
2022-09-26T03:17:15.439Z,12.40
2022-09-26T03:19:59.656Z,12.03
2022-09-26T03:22:26.406Z,9.13
2022-09-26T03:24:54.032Z,10.90
2022-09-26T03:27:21.076Z,9.40
2022-09-26T03:29:47.814Z,10.50
2022-09-26T03:32:14.535Z,10.27
2022-09-26T03:34:41.279Z,10.60
2022-09-26T03:37:08.420Z,10.17
2022-09-26T03:39:35.142Z,13.03
2022-09-26T03:42:02.691Z,13.13
2022-09-26T03:44:29.946Z,10.90
2022-09-26T03:46:56.746Z,11.00
2022-09-26T03:49:23.424Z,10.30
2022-09-26T03:51:50.205Z,12.83
2022-09-26T03:54:16.840Z,9.30
2022-09-26T03:56:43.514Z,9.83
2022-09-26T03:59:10.174Z,11.93
2022-09-26T04:01:36.885Z,13.13
2022-09-26T04:04:03.614Z,10.87
2022-09-26T04:06:30.324Z,10.20
2022-09-26T04:08:56.993Z,10.90
2022-09-26T04:11:24.652Z,13.33
2022-09-26T04:13:53.776Z,15.70
2022-09-26T04:16:22.801Z,12.17
2022-09-26T04:18:50.166Z,11.87
2022-09-26T04:21:17.049Z,12.47
2022-09-26T04:23:44.858Z,14.50
2022-09-26T04:26:17.626Z,15.13
2022-09-26T04:28:50.981Z,13.33
2022-09-26T04:31:17.985Z,11.07
2022-09-26T04:33:45.206Z,12.53
2022-09-26T04:36:13.830Z,15.00
2022-09-26T04:38:41.127Z,11.40
2022-09-26T04:41:13.607Z,10.67
2022-09-26T04:43:40.637Z,15.17
2022-09-26T04:46:15.950Z,12.53
2022-09-26T04:48:49.520Z,15.48
2022-09-26T04:51:18.171Z,15.30
2022-09-26T04:53:45.606Z,16.63
2022-09-26T04:56:14.217Z,14.63
2022-09-26T04:58:43.605Z,16.93
2022-09-26T05:01:20.943Z,15.70
2022-09-26T05:03:48.130Z,17.93
2022-09-26T05:06:17.532Z,16.37
2022-09-26T05:08:46.926Z,17.67
2022-09-26T05:11:16.177Z,16.47
2022-09-26T05:13:43.747Z,20.87
2022-09-26T05:16:11.917Z,17.67
2022-09-26T05:18:39.335Z,19.73
2022-09-26T05:21:07.487Z,14.50
2022-09-26T05:23:53.614Z,17.60
2022-09-26T05:26:27.975Z,16.20
2022-09-26T05:28:56.823Z,18.77
2022-09-26T05:31:29.100Z,17.07
2022-09-26T05:33:58.957Z,17.87
2022-09-26T05:36:26.613Z,16.80
2022-09-26T05:38:53.908Z,19.63
2022-09-26T05:41:20.803Z,21.03
2022-09-26T05:43:48.151Z,20.57
2022-09-26T05:46:15.712Z,25.43
2022-09-26T05:48:42.848Z,23.83
2022-09-26T05:51:17.684Z,28.07
2022-09-26T05:53:45.903Z,23.50
2022-09-26T05:56:18.328Z,22.90
2022-09-26T05:58:45.619Z,22.23
2022-09-26T06:01:16.730Z,23.47
2022-09-26T06:03:47.450Z,23.00
2022-09-26T06:06:16.589Z,23.07
2022-09-26T06:08:43.745Z,21.80
2022-09-26T06:11:13.929Z,22.00
2022-09-26T06:13:45.762Z,19.30
2022-09-26T06:16:15.915Z,23.03
2022-09-26T06:18:42.671Z,23.70
2022-09-26T06:21:12.008Z,21.53
2022-09-26T06:23:39.448Z,21.47
2022-09-26T06:26:08.427Z,22.03
2022-09-26T06:28:36.324Z,21.07
2022-09-26T06:31:11.294Z,17.90
2022-09-26T06:33:38.184Z,17.37
2022-09-26T06:36:07.614Z,19.67
2022-09-26T06:38:34.624Z,16.53
2022-09-26T06:41:01.827Z,22.40
2022-09-26T06:43:28.865Z,18.67
2022-09-26T06:45:55.537Z,14.23
2022-09-26T06:48:24.519Z,16.13
2022-09-26T06:50:57.051Z,18.50
2022-09-26T06:53:23.875Z,13.23
2022-09-26T06:55:50.536Z,16.30
2022-09-26T06:58:17.696Z,12.97
2022-09-26T07:00:45.129Z,12.67
2022-09-26T07:03:13.484Z,18.27
2022-09-26T07:05:40.227Z,14.13
2022-09-26T07:08:07.066Z,11.73
2022-09-26T07:10:38.495Z,14.60
2022-09-26T07:13:07.725Z,11.40
2022-09-26T07:15:36.138Z,12.67
2022-09-26T07:18:06.323Z,14.40
2022-09-26T07:20:37.175Z,14.83
2022-09-26T07:23:05.277Z,11.47
2022-09-26T07:25:33.317Z,9.53
2022-09-26T07:28:00.912Z,10.23
2022-09-26T07:30:28.440Z,9.20
2022-09-26T07:33:03.678Z,7.77
2022-09-26T07:35:32.239Z,7.80
2022-09-26T07:37:59.342Z,7.45
2022-09-26T07:40:26.715Z,8.13
2022-09-26T07:43:15.459Z,8.70
2022-09-26T07:45:58.794Z,7.00
2022-09-26T07:49:04.046Z,6.65
2022-09-26T07:51:32.456Z,6.10
2022-09-26T07:53:59.173Z,8.18
2022-09-26T07:56:25.823Z,7.77
2022-09-26T07:58:55.378Z,8.75
2022-09-26T08:01:22.087Z,6.35
2022-09-26T08:03:48.865Z,8.98
2022-09-26T08:06:20.287Z,5.20
2022-09-26T08:08:48.185Z,7.30
2022-09-26T08:11:16.814Z,6.07
2022-09-26T08:13:45.077Z,6.88
2022-09-26T08:16:18.992Z,6.13
2022-09-26T08:18:46.086Z,4.70
2022-09-26T08:21:13.218Z,4.25
2022-09-26T08:23:39.900Z,4.95
2022-09-26T08:26:07.423Z,7.18
2022-09-26T08:28:35.369Z,10.13
2022-09-26T08:31:05.096Z,4.35
2022-09-26T08:33:36.100Z,6.40
2022-09-26T08:36:07.842Z,6.70
2022-09-26T08:38:35.469Z,7.47
2022-09-26T08:41:36.525Z,5.80
2022-09-26T08:44:35.105Z,6.22
2022-09-26T08:47:17.209Z,7.43
2022-09-26T08:49:54.602Z,6.68
2022-09-26T08:52:53.831Z,6.13
2022-09-26T08:55:25.102Z,7.63
2022-09-26T08:58:16.552Z,5.10
2022-09-26T09:00:44.829Z,5.30
2022-09-26T09:03:18.140Z,3.65
2022-09-26T09:05:53.228Z,4.50
2022-09-26T09:08:35.171Z,9.07
2022-09-26T09:11:43.275Z,5.75
2022-09-26T09:14:22.466Z,3.90
2022-09-26T09:16:51.637Z,4.03
2022-09-26T09:19:33.589Z,4.18
2022-09-26T09:22:36.953Z,6.53
2022-09-26T09:25:24.131Z,6.80
2022-09-26T09:28:24.937Z,4.72
2022-09-26T09:30:55.253Z,4.47
2022-09-26T09:33:24.911Z,2.95
2022-09-26T09:35:56.856Z,4.72
2022-09-26T09:38:28.710Z,4.80
2022-09-26T09:41:19.693Z,4.93
2022-09-26T09:44:10.669Z,4.65
2022-09-26T09:46:43.071Z,3.08
2022-09-26T09:49:09.976Z,3.92
2022-09-26T09:51:39.823Z,4.35
2022-09-26T09:54:27.756Z,11.05
2022-09-26T09:57:18.626Z,3.80
2022-09-26T09:59:55.386Z,6.78
2022-09-26T10:02:40.651Z,5.15
2022-09-26T10:05:28.486Z,6.32
2022-09-26T10:07:58.034Z,4.85
2022-09-26T10:10:41.162Z,3.13
2022-09-26T10:13:11.406Z,5.32
2022-09-26T10:15:56.192Z,5.05
2022-09-26T10:18:26.039Z,5.32
2022-09-26T10:20:57.343Z,4.50
2022-09-26T10:23:32.751Z,4.22
2022-09-26T10:26:10.866Z,3.47
2022-09-26T10:28:52.756Z,3.13
2022-09-26T10:31:42.641Z,5.22
2022-09-26T10:34:26.230Z,6.88
2022-09-26T10:36:53.100Z,5.47
2022-09-26T10:39:41.224Z,6.50
2022-09-26T10:42:20.208Z,4.47
2022-09-26T10:44:50.760Z,3.25
2022-09-26T10:47:21.929Z,7.18
2022-09-26T10:50:01.861Z,6.03
2022-09-26T10:52:40.186Z,4.05
2022-09-26T10:55:09.489Z,2.40
2022-09-26T10:57:45.369Z,1.92
2022-09-26T11:00:40.486Z,4.35
2022-09-26T11:03:38.009Z,5.38
2022-09-26T11:06:04.986Z,2.83
2022-09-26T11:08:37.822Z,3.88
2022-09-26T11:11:12.545Z,3.15
2022-09-26T11:13:48.102Z,2.90
2022-09-26T11:16:16.232Z,3.85
2022-09-26T11:18:53.843Z,4.82
2022-09-26T11:21:29.793Z,5.93
2022-09-26T11:24:24.770Z,4.35
2022-09-26T11:27:06.703Z,5.88
2022-09-26T11:29:39.840Z,4.13
2022-09-26T11:32:09.271Z,3.30
2022-09-26T11:34:36.411Z,3.00
2022-09-26T11:37:30.059Z,4.40
2022-09-26T11:40:21.306Z,2.38
2022-09-26T11:43:18.598Z,2.78
2022-09-26T11:46:21.198Z,2.10
2022-09-26T11:49:33.470Z,4.05
2022-09-26T11:52:18.883Z,5.28
2022-09-26T11:54:51.475Z,2.55
2022-09-26T11:57:42.867Z,1.80
2022-09-26T12:00:27.474Z,3.42
2022-09-26T12:03:05.014Z,4.60
2022-09-26T12:05:54.186Z,3.22
2022-09-26T12:09:09.395Z,8.13
2022-09-26T12:11:56.962Z,3.33
2022-09-26T12:15:03.793Z,9.23
2022-09-26T12:17:59.584Z,5.90
2022-09-26T12:20:39.461Z,3.85
2022-09-26T12:23:32.426Z,3.40
2022-09-26T12:26:05.640Z,5.13
2022-09-26T12:28:41.237Z,2.78
2022-09-26T12:31:23.815Z,5.95
2022-09-26T12:33:53.281Z,3.70
2022-09-26T12:36:47.810Z,4.65
2022-09-26T12:39:29.917Z,2.88
2022-09-26T12:42:33.117Z,4.28
2022-09-26T12:45:23.031Z,4.05
2022-09-26T12:48:08.020Z,6.57
2022-09-26T12:51:10.047Z,5.70
2022-09-26T12:53:53.283Z,2.35
2022-09-26T12:56:30.808Z,5.32
2022-09-26T12:59:15.609Z,5.50
2022-09-26T13:02:07.142Z,3.38
2022-09-26T13:05:02.484Z,3.05
2022-09-26T13:08:06.970Z,4.55
2022-09-26T13:10:50.412Z,4.43
2022-09-26T13:13:26.389Z,3.08
2022-09-26T13:16:16.361Z,1.95
2022-09-26T13:18:47.197Z,3.45
2022-09-26T13:21:19.473Z,2.13
2022-09-26T13:23:59.051Z,1.98
2022-09-26T13:26:37.110Z,2.97
2022-09-26T13:29:19.389Z,1.58
2022-09-26T13:31:55.435Z,2.10
2022-09-26T13:34:31.339Z,0.95
2022-09-26T13:36:59.575Z,4.00
2022-09-26T13:39:48.031Z,2.92
2022-09-26T13:42:41.565Z,1.60
2022-09-26T13:45:14.394Z,1.05
2022-09-26T13:47:49.973Z,1.00
2022-09-26T13:50:31.521Z,2.28
2022-09-26T13:53:07.893Z,1.38
2022-09-26T13:55:35.969Z,2.75
2022-09-26T13:58:08.947Z,2.47
2022-09-26T14:00:41.317Z,2.80
2022-09-26T14:03:15.391Z,1.30
2022-09-26T14:05:42.150Z,3.58
2022-09-26T14:08:47.480Z,2.67
2022-09-26T14:11:19.919Z,1.55
2022-09-26T14:13:47.752Z,2.70
2022-09-26T14:16:33.464Z,2.30
2022-09-26T14:19:04.067Z,1.42
2022-09-26T14:21:33.762Z,1.85
2022-09-26T14:24:35.824Z,2.33
2022-09-26T14:27:10.414Z,4.83
2022-09-26T14:29:39.896Z,2.50
2022-09-26T14:32:12.277Z,2.73
2022-09-26T14:34:45.026Z,1.50
2022-09-26T14:37:40.814Z,3.77
2022-09-26T14:40:10.392Z,2.87
2022-09-26T14:42:42.592Z,2.73
2022-09-26T14:45:49.035Z,4.30
2022-09-26T14:48:32.125Z,5.30
2022-09-26T14:51:04.656Z,4.23
2022-09-26T14:53:34.879Z,1.97
2022-09-26T14:56:07.436Z,2.50
2022-09-26T14:58:36.855Z,4.57
2022-09-26T15:01:06.539Z,2.97
2022-09-26T15:03:34.933Z,4.40
2022-09-26T15:06:04.219Z,2.90
2022-09-26T15:08:35.051Z,1.83
2022-09-26T15:11:04.153Z,1.67
2022-09-26T15:13:38.243Z,2.60
2022-09-26T15:16:32.855Z,3.30
2022-09-26T15:19:21.737Z,2.43
2022-09-26T15:21:59.112Z,1.87
2022-09-26T15:24:32.770Z,1.87
2022-09-26T15:27:11.399Z,2.97
2022-09-26T15:29:49.637Z,1.77
2022-09-26T15:32:22.961Z,1.73
2022-09-26T15:34:51.401Z,1.87
2022-09-26T15:37:22.436Z,2.50
2022-09-26T15:39:49.712Z,2.83
2022-09-26T15:42:48.838Z,1.97
2022-09-26T15:45:27.448Z,3.53
2022-09-26T15:47:56.452Z,2.27
2022-09-26T15:50:31.553Z,2.27
2022-09-26T15:53:02.046Z,2.97
2022-09-26T15:55:38.174Z,1.90
2022-09-26T15:58:06.832Z,1.90
2022-09-26T16:00:37.176Z,2.17
2022-09-26T16:03:42.321Z,1.70
2022-09-26T16:06:23.631Z,3.23
2022-09-26T16:08:58.920Z,2.37
2022-09-26T16:11:25.941Z,3.03
2022-09-26T16:13:53.758Z,4.17
2022-09-26T16:16:26.672Z,2.77
2022-09-26T16:19:00.931Z,2.70
2022-09-26T16:21:32.125Z,1.77
2022-09-26T16:24:22.443Z,2.10
2022-09-26T16:26:51.135Z,4.50
2022-09-26T16:29:34.615Z,3.27
2022-09-26T16:32:05.274Z,3.67
2022-09-26T16:34:32.365Z,4.80
2022-09-26T16:36:59.446Z,2.93
2022-09-26T16:39:28.985Z,2.80
2022-09-26T16:42:07.631Z,3.63
2022-09-26T16:44:38.950Z,4.93
2022-09-26T16:47:27.204Z,7.30
2022-09-26T16:49:53.865Z,5.53
2022-09-26T16:52:29.611Z,3.50
2022-09-26T16:54:59.114Z,3.00
2022-09-26T16:57:32.196Z,4.03
2022-09-26T17:00:20.874Z,3.53
2022-09-26T17:02:47.615Z,5.33
2022-09-26T17:05:20.202Z,4.43
2022-09-26T17:07:49.045Z,3.23
2022-09-26T17:10:18.252Z,4.57
2022-09-26T17:12:48.997Z,3.67
2022-09-26T17:15:20.969Z,4.33
2022-09-26T17:17:48.005Z,4.53
2022-09-26T17:20:15.700Z,4.00
2022-09-26T17:22:42.414Z,5.43
2022-09-26T17:25:16.305Z,3.63
2022-09-26T17:27:43.759Z,5.70
2022-09-26T17:30:19.155Z,2.57
2022-09-26T17:32:51.088Z,4.20
2022-09-26T17:35:32.039Z,4.90
2022-09-26T17:38:00.187Z,4.03
2022-09-26T17:40:38.661Z,3.33
2022-09-26T17:43:06.577Z,5.17
2022-09-26T17:45:35.814Z,3.07
2022-09-26T17:48:06.925Z,2.93
2022-09-26T17:50:35.398Z,3.73
2022-09-26T17:53:03.184Z,4.00
2022-09-26T17:55:30.972Z,2.67
2022-09-26T17:57:59.661Z,3.13
2022-09-26T18:00:38.902Z,2.80
2022-09-26T18:03:07.882Z,3.70
2022-09-26T18:05:39.403Z,3.97
2022-09-26T18:08:28.191Z,5.07
2022-09-26T18:10:57.582Z,4.83
2022-09-26T18:13:28.680Z,4.10
2022-09-26T18:15:59.693Z,4.40
2022-09-26T18:18:31.972Z,5.97
2022-09-26T18:21:03.979Z,3.57
2022-09-26T18:23:42.391Z,3.43
2022-09-26T18:26:23.111Z,7.10
2022-09-26T18:28:50.649Z,3.03
2022-09-26T18:31:20.218Z,4.17
2022-09-26T18:33:47.093Z,2.70
2022-09-26T18:36:13.894Z,4.80
2022-09-26T18:38:40.616Z,3.10
2022-09-26T18:41:07.362Z,3.43
2022-09-26T18:43:40.435Z,3.57
2022-09-26T18:46:15.902Z,3.30
2022-09-26T18:48:43.331Z,3.57
2022-09-26T18:51:13.279Z,5.90
2022-09-26T18:53:41.054Z,4.50
2022-09-26T18:56:27.430Z,3.33
2022-09-26T18:58:54.530Z,2.60
2022-09-26T19:01:25.160Z,3.10
2022-09-26T19:03:52.140Z,3.00
2022-09-26T19:06:25.428Z,2.27
2022-09-26T19:08:57.838Z,2.00
2022-09-26T19:11:26.356Z,3.10
2022-09-26T19:13:55.285Z,2.80
2022-09-26T19:16:23.180Z,2.77
2022-09-26T19:18:50.420Z,2.80
2022-09-26T19:21:31.913Z,2.90
2022-09-26T19:24:06.427Z,2.33
2022-09-26T19:26:42.406Z,3.30
2022-09-26T19:29:14.162Z,4.00
2022-09-26T19:31:42.716Z,5.27
2022-09-26T19:34:17.493Z,4.67
2022-09-26T19:36:44.171Z,4.17
2022-09-26T19:39:15.693Z,2.90
2022-09-26T19:41:42.627Z,3.90
2022-09-26T19:44:09.573Z,3.77
2022-09-26T19:46:37.559Z,5.13
2022-09-26T19:49:05.717Z,2.53
2022-09-26T19:51:38.306Z,2.93
2022-09-26T19:54:06.487Z,2.90
2022-09-26T19:56:33.328Z,2.73
2022-09-26T19:59:00.231Z,2.20
2022-09-26T20:01:27.429Z,2.80
2022-09-26T20:03:54.240Z,3.00
2022-09-26T20:06:24.274Z,3.53
2022-09-26T20:08:56.377Z,6.17
2022-09-26T20:11:27.108Z,3.93
2022-09-26T20:14:12.455Z,4.00
2022-09-26T20:16:42.268Z,4.03
2022-09-26T20:19:16.190Z,3.33
2022-09-26T20:21:44.293Z,3.53
2022-09-26T20:24:16.454Z,5.13
2022-09-26T20:26:43.369Z,4.20
2022-09-26T20:29:14.142Z,6.50
2022-09-26T20:31:43.658Z,3.97
2022-09-26T20:34:11.568Z,5.90
2022-09-26T20:36:42.091Z,2.70
2022-09-26T20:39:15.022Z,3.43
2022-09-26T20:41:43.171Z,5.07
2022-09-26T20:44:18.470Z,4.40
2022-09-26T20:46:56.271Z,3.83
2022-09-26T20:49:34.435Z,4.10
2022-09-26T20:52:02.435Z,3.53
2022-09-26T20:54:31.906Z,4.83
2022-09-26T20:56:59.386Z,3.10
2022-09-26T20:59:26.407Z,4.73
2022-09-26T21:01:54.466Z,4.60
2022-09-26T21:04:30.235Z,4.03
2022-09-26T21:06:57.356Z,5.50
2022-09-26T21:09:24.200Z,6.20
2022-09-26T21:11:50.865Z,4.40
2022-09-26T21:14:18.232Z,2.80
2022-09-26T21:16:51.158Z,3.13
2022-09-26T21:19:21.603Z,3.17
2022-09-26T21:21:50.715Z,4.47
2022-09-26T21:24:30.817Z,3.43
2022-09-26T21:26:57.457Z,6.83
2022-09-26T21:29:24.463Z,1.93
2022-09-26T21:31:53.687Z,4.63
2022-09-26T21:34:22.168Z,4.47
2022-09-26T21:36:50.869Z,3.43
2022-09-26T21:39:19.024Z,2.90
2022-09-26T21:41:49.289Z,2.83
2022-09-26T21:44:32.244Z,4.17
2022-09-26T21:46:58.868Z,3.60
2022-09-26T21:49:25.585Z,2.57
2022-09-26T21:51:57.853Z,4.23
2022-09-26T21:54:31.693Z,2.83
2022-09-26T21:57:04.610Z,3.87
2022-09-26T21:59:31.459Z,2.90
2022-09-26T22:01:58.102Z,2.53
2022-09-26T22:04:24.762Z,4.27
2022-09-26T22:06:51.389Z,4.70
2022-09-26T22:09:18.020Z,3.67
2022-09-26T22:11:44.653Z,2.67
2022-09-26T22:14:11.357Z,6.23
2022-09-26T22:16:38.119Z,4.70
2022-09-26T22:19:05.928Z,2.30
2022-09-26T22:21:32.633Z,3.50
2022-09-26T22:24:00.034Z,3.10
2022-09-26T22:26:26.685Z,2.17
2022-09-26T22:28:53.334Z,3.03
2022-09-26T22:31:20.011Z,2.97
2022-09-26T22:33:46.824Z,5.10
2022-09-26T22:36:13.449Z,5.63
2022-09-26T22:38:40.636Z,5.23
2022-09-26T22:41:07.676Z,5.27
2022-09-26T22:43:35.665Z,3.00
2022-09-26T22:46:05.493Z,6.33
2022-09-26T22:48:33.910Z,4.77
2022-09-26T22:51:00.826Z,2.53
2022-09-26T22:53:28.190Z,3.67
2022-09-26T22:55:55.685Z,7.03
2022-09-26T22:58:23.518Z,3.77
2022-09-26T23:00:50.248Z,3.00
2022-09-26T23:03:17.588Z,8.30
2022-09-26T23:05:46.860Z,3.30
2022-09-26T23:08:13.969Z,2.90
2022-09-26T23:10:48.606Z,3.10
2022-09-26T23:13:15.216Z,2.33
2022-09-26T23:15:41.855Z,3.67
2022-09-26T23:18:08.504Z,2.53
2022-09-26T23:20:41.472Z,2.00
2022-09-26T23:23:09.706Z,2.33
2022-09-26T23:25:37.378Z,2.07
2022-09-26T23:28:04.479Z,2.97
2022-09-26T23:30:31.205Z,2.43
2022-09-26T23:32:57.863Z,1.40
2022-09-26T23:35:24.559Z,2.93
2022-09-26T23:37:51.197Z,2.43
2022-09-26T23:40:17.897Z,2.47
2022-09-26T23:42:44.808Z,2.57
2022-09-26T23:45:11.459Z,3.10
2022-09-26T23:47:38.150Z,1.60
2022-09-26T23:50:05.194Z,2.83
2022-09-26T23:52:31.919Z,2.00
2022-09-26T23:54:58.573Z,2.97
2022-09-26T23:57:25.313Z,3.57
2022-09-26T23:59:51.976Z,3.97
